Time,TemperatureF,DewpointF,PressureIn,WindDirection,WindDirectionDegrees,WindSpeedMPH,WindSpeedGustMPH,Humidity,HourlyPrecipIn,Conditions,Clouds,dailyrainin,SolarRadiationWatts/m^2,SoftwareType,DateUTC
2013-11-10 00:01:00,33.0,32.0,-100.00,WNW,299,8.0,14.0,96,0.00,,,0.00,0.000000,,2013-11-10 06:01:00,
2013-11-10 00:42:00,33.0,32.0,-100.00,WNW,299,8.0,14.0,96,0.00,,,0.00,0.000000,,2013-11-10 06:42:00,
2013-11-10 00:52:00,33.0,32.0,-100.00,WNW,299,8.0,14.0,96,0.00,,,0.00,0.000000,,2013-11-10 06:52:00,
2013-11-10 01:01:00,33.0,32.0,-100.00,NW,313,8.0,16.0,96,0.00,,,0.00,0.000000,,2013-11-10 07:01:00,
2013-11-10 01:43:00,33.0,32.0,-100.00,NW,313,8.0,16.0,96,0.00,,,0.00,0.000000,,2013-11-10 07:43:00,
2013-11-10 01:52:00,33.0,32.0,-100.00,NW,313,8.0,16.0,96,0.00,,,0.00,0.000000,,2013-11-10 07:52:00,
2013-11-10 02:01:00,-999.0,-99.9,-100.00,NW,313,6.0,17.0,96,0.00,,,0.00,0.000000,,2013-11-10 08:01:00,
2013-11-10 02:22:00,-999.0,-99.9,-100.00,NW,313,6.0,17.0,96,0.00,,,0.00,0.000000,,2013-11-10 08:22:00,
2013-11-10 02:32:00,-999.0,-99.9,-100.00,NW,313,6.0,17.0,96,0.00,,,0.00,0.000000,,2013-11-10 08:32:00,
2013-11-10 02:43:00,-999.0,-99.9,-100.00,NW,313,6.0,17.0,96,0.00,,,0.00,0.000000,,2013-11-10 08:43:00,
2013-11-10 02:53:00,-999.0,-99.9,-100.00,NW,313,6.0,17.0,96,0.00,,,0.00,0.000000,,2013-11-10 08:53:00,
2013-11-10 03:01:00,32.0,31.0,-100.00,NNW,329,10.0,17.0,97,0.00,,,0.00,0.000000,,2013-11-10 09:01:00,
2013-11-10 03:22:00,32.0,31.0,-100.00,NNW,329,10.0,17.0,97,0.00,,,0.00,0.000000,,2013-11-10 09:22:00,
2013-11-10 03:33:00,32.0,31.0,-100.00,NNW,329,10.0,17.0,97,0.00,,,0.00,0.000000,,2013-11-10 09:33:00,
2013-11-10 03:43:00,32.0,31.0,-100.00,NNW,329,10.0,17.0,97,0.00,,,0.00,0.000000,,2013-11-10 09:43:00,
2013-11-10 03:53:00,32.0,31.0,-100.00,NNW,329,10.0,17.0,97,0.00,,,0.00,0.000000,,2013-11-10 09:53:00,
2013-11-10 04:01:00,32.0,30.0,-100.00,NW,322,6.0,16.0,94,0.00,,,0.00,0.000000,,2013-11-10 10:01:00,
2013-11-10 04:23:00,32.0,30.0,-100.00,NW,322,6.0,16.0,94,0.00,,,0.00,0.000000,,2013-11-10 10:23:00,
2013-11-10 04:33:00,32.0,30.0,-100.00,NW,322,6.0,16.0,94,0.00,,,0.00,0.000000,,2013-11-10 10:33:00,
2013-11-10 04:42:00,32.0,30.0,-100.00,NW,322,6.0,16.0,94,0.00,,,0.00,0.000000,,2013-11-10 10:42:00,
2013-11-10 04:53:00,32.0,30.0,-100.00,NW,322,6.0,16.0,94,0.00,,,0.00,0.000000,,2013-11-10 10:53:00,
2013-11-10 05:01:00,32.0,30.0,-100.00,NW,318,5.0,11.0,94,0.00,,,0.00,0.000000,,2013-11-10 11:01:00,
2013-11-10 05:43:00,32.0,30.0,-100.00,NW,318,5.0,11.0,94,0.00,,,0.00,0.000000,,2013-11-10 11:43:00,
2013-11-10 05:52:00,32.0,30.0,-100.00,NW,318,5.0,11.0,94,0.00,,,0.00,0.000000,,2013-11-10 11:52:00,
2013-11-10 09:01:00,32.0,30.0,-100.00,WNW,294,2.0,8.0,91,-99.99,,,0.00,29.000000,,2013-11-10 15:01:00,
2013-11-10 09:43:00,32.0,30.0,-100.00,WNW,294,2.0,8.0,91,-99.99,,,0.00,29.000000,,2013-11-10 15:43:00,
2013-11-10 09:53:00,32.0,30.0,-100.00,WNW,294,2.0,8.0,91,-99.99,,,0.00,29.000000,,2013-11-10 15:53:00,
2013-11-10 10:01:00,34.0,30.0,-100.00,WNW,284,3.0,6.0,85,0.00,,,0.00,89.000000,,2013-11-10 16:01:00,
2013-11-10 10:42:00,34.0,30.0,-100.00,WNW,284,3.0,6.0,85,0.00,,,0.00,89.000000,,2013-11-10 16:42:00,
2013-11-10 10:53:00,34.0,30.0,-100.00,WNW,284,3.0,6.0,85,0.00,,,0.00,89.000000,,2013-11-10 16:53:00,
2013-11-10 11:01:00,33.0,28.0,-100.00,West,264,7.0,12.0,81,0.00,,,0.00,110.000000,,2013-11-10 17:01:00,
2013-11-10 11:23:00,33.0,28.0,-100.00,West,264,7.0,12.0,81,0.00,,,0.00,110.000000,,2013-11-10 17:23:00,
2013-11-10 11:34:00,33.0,28.0,-100.00,West,264,7.0,12.0,81,0.00,,,0.00,110.000000,,2013-11-10 17:34:00,
2013-11-10 11:43:00,33.0,28.0,-100.00,West,264,7.0,12.0,81,0.00,,,0.00,110.000000,,2013-11-10 17:43:00,
2013-11-10 11:52:00,33.0,28.0,-100.00,West,264,7.0,12.0,81,0.00,,,0.00,110.000000,,2013-11-10 17:52:00,
2013-11-10 12:01:00,34.0,28.0,-100.00,West,260,6.0,13.0,77,0.00,,,0.00,153.000000,,2013-11-10 18:01:00,
2013-11-10 12:24:00,34.0,28.0,-100.00,West,260,6.0,13.0,77,0.00,,,0.00,153.000000,,2013-11-10 18:24:00,
2013-11-10 12:32:00,34.0,28.0,-100.00,West,260,6.0,13.0,77,0.00,,,0.00,153.000000,,2013-11-10 18:32:00,
2013-11-10 12:42:00,34.0,28.0,-100.00,West,260,6.0,13.0,77,0.00,,,0.00,153.000000,,2013-11-10 18:42:00,
2013-11-10 12:52:00,34.0,28.0,-100.00,West,260,6.0,13.0,77,0.00,,,0.00,153.000000,,2013-11-10 18:52:00,
2013-11-10 13:01:00,36.0,28.0,-100.00,WSW,248,8.0,15.0,71,0.00,,,0.00,404.000000,,2013-11-10 19:01:00,
2013-11-10 13:22:00,36.0,28.0,-100.00,WSW,248,8.0,15.0,71,0.00,,,0.00,404.000000,,2013-11-10 19:22:00,
2013-11-10 13:32:00,36.0,28.0,-100.00,WSW,248,8.0,15.0,71,0.00,,,0.00,404.000000,,2013-11-10 19:32:00,
2013-11-10 13:42:00,36.0,28.0,-100.00,WSW,248,8.0,15.0,71,0.00,,,0.00,404.000000,,2013-11-10 19:42:00,
2013-11-10 13:52:00,36.0,28.0,-100.00,WSW,248,8.0,15.0,71,0.00,,,0.00,404.000000,,2013-11-10 19:52:00,
2013-11-10 14:01:00,40.0,29.0,-100.00,WSW,246,6.0,11.0,64,0.00,,,0.00,446.000000,,2013-11-10 20:01:00,
2013-11-10 14:22:00,40.0,29.0,-100.00,WSW,246,6.0,11.0,64,0.00,,,0.00,446.000000,,2013-11-10 20:22:00,
2013-11-10 14:32:00,40.0,29.0,-100.00,WSW,246,6.0,11.0,64,0.00,,,0.00,446.000000,,2013-11-10 20:32:00,
2013-11-10 14:43:00,40.0,29.0,-100.00,WSW,246,6.0,11.0,64,0.00,,,0.00,446.000000,,2013-11-10 20:43:00,
2013-11-10 14:52:00,40.0,29.0,-100.00,WSW,246,6.0,11.0,64,0.00,,,0.00,446.000000,,2013-11-10 20:52:00,
2013-11-10 15:01:00,38.0,27.0,-100.00,WSW,247,7.0,15.0,65,0.00,,,0.00,262.000000,,2013-11-10 21:01:00,
2013-11-10 15:22:00,38.0,27.0,-100.00,WSW,247,7.0,15.0,65,0.00,,,0.00,262.000000,,2013-11-10 21:22:00,
2013-11-10 15:33:00,38.0,27.0,-100.00,WSW,247,7.0,15.0,65,0.00,,,0.00,262.000000,,2013-11-10 21:33:00,
2013-11-10 15:43:00,38.0,27.0,-100.00,WSW,247,7.0,15.0,65,0.00,,,0.00,262.000000,,2013-11-10 21:43:00,
2013-11-10 15:55:00,38.0,27.0,-100.00,WSW,247,7.0,15.0,65,0.00,,,0.00,262.000000,,2013-11-10 21:55:00,
2013-11-10 16:01:00,37.0,28.0,-100.00,WSW,244,4.0,11.0,69,0.00,,,0.00,140.000000,,2013-11-10 22:01:00,
2013-11-10 16:24:00,37.0,28.0,-100.00,WSW,244,4.0,11.0,69,0.00,,,0.00,140.000000,,2013-11-10 22:24:00,
2013-11-10 16:34:00,37.0,28.0,-100.00,WSW,244,4.0,11.0,69,0.00,,,0.00,140.000000,,2013-11-10 22:34:00,
2013-11-10 16:43:00,37.0,28.0,-100.00,WSW,244,4.0,11.0,69,0.00,,,0.00,140.000000,,2013-11-10 22:43:00,
2013-11-10 16:54:00,37.0,28.0,-100.00,WSW,244,4.0,11.0,69,0.00,,,0.00,140.000000,,2013-11-10 22:54:00,
2013-11-10 17:01:00,34.0,27.0,-100.00,WSW,238,4.0,8.0,75,0.00,,,0.00,9.000000,,2013-11-10 23:01:00,
2013-11-10 17:22:00,34.0,27.0,-100.00,WSW,238,4.0,8.0,75,0.00,,,0.00,9.000000,,2013-11-10 23:22:00,
2013-11-10 17:34:00,34.0,27.0,-100.00,WSW,238,4.0,8.0,75,0.00,,,0.00,9.000000,,2013-11-10 23:34:00,
2013-11-10 17:43:00,34.0,27.0,-100.00,WSW,238,4.0,8.0,75,0.00,,,0.00,9.000000,,2013-11-10 23:43:00,
2013-11-10 17:53:00,34.0,27.0,-100.00,WSW,238,4.0,8.0,75,0.00,,,0.00,9.000000,,2013-11-10 23:53:00,
2013-11-10 18:01:00,34.0,26.0,-100.00,WSW,243,6.0,11.0,72,0.00,,,0.00,0.000000,,2013-11-11 00:01:00,
2013-11-10 18:22:00,34.0,26.0,-100.00,WSW,243,6.0,11.0,72,0.00,,,0.00,0.000000,,2013-11-11 00:22:00,
2013-11-10 18:32:00,34.0,26.0,-100.00,WSW,243,6.0,11.0,72,0.00,,,0.00,0.000000,,2013-11-11 00:32:00,
2013-11-10 18:42:00,34.0,26.0,-100.00,WSW,243,6.0,11.0,72,0.00,,,0.00,0.000000,,2013-11-11 00:42:00,
2013-11-10 18:52:00,34.0,26.0,-100.00,WSW,243,6.0,11.0,72,0.00,,,0.00,0.000000,,2013-11-11 00:52:00,
2013-11-10 19:01:00,33.0,26.0,-100.00,WSW,249,5.0,12.0,74,0.00,,,0.00,0.000000,,2013-11-11 01:01:00,
2013-11-10 19:23:00,33.0,26.0,-100.00,WSW,249,5.0,12.0,74,0.00,,,0.00,0.000000,,2013-11-11 01:23:00,
2013-11-10 19:32:00,33.0,26.0,-100.00,WSW,249,5.0,12.0,74,0.00,,,0.00,0.000000,,2013-11-11 01:32:00,
2013-11-10 19:42:00,33.0,26.0,-100.00,WSW,249,5.0,12.0,74,0.00,,,0.00,0.000000,,2013-11-11 01:42:00,
2013-11-10 19:52:00,33.0,26.0,-100.00,WSW,249,5.0,12.0,74,0.00,,,0.00,0.000000,,2013-11-11 01:52:00,
2013-11-10 20:01:00,34.0,26.0,-100.00,WSW,251,6.0,14.0,71,0.00,,,0.00,0.000000,,2013-11-11 02:01:00,
2013-11-10 20:22:00,34.0,26.0,-100.00,WSW,251,6.0,14.0,71,0.00,,,0.00,0.000000,,2013-11-11 02:22:00,
2013-11-10 20:32:00,34.0,26.0,-100.00,WSW,251,6.0,14.0,71,0.00,,,0.00,0.000000,,2013-11-11 02:32:00,
2013-11-10 20:42:00,34.0,26.0,-100.00,WSW,251,6.0,14.0,71,0.00,,,0.00,0.000000,,2013-11-11 02:42:00,
2013-11-10 20:52:00,34.0,26.0,-100.00,WSW,251,6.0,14.0,71,0.00,,,0.00,0.000000,,2013-11-11 02:52:00,
2013-11-10 21:01:00,35.0,27.0,-100.00,WSW,257,7.0,16.0,72,0.00,,,0.00,0.000000,,2013-11-11 03:01:00,
2013-11-10 21:44:00,35.0,27.0,-100.00,WSW,257,7.0,16.0,72,0.00,,,0.00,0.000000,,2013-11-11 03:44:00,
2013-11-10 21:55:00,35.0,27.0,-100.00,WSW,257,7.0,16.0,72,0.00,,,0.00,0.000000,,2013-11-11 03:55:00,
2013-11-10 22:01:00,32.0,30.0,-100.00,WSW,248,6.0,16.0,94,0.00,,,0.00,0.000000,,2013-11-11 04:01:00,
2013-11-10 22:24:00,32.0,30.0,-100.00,WSW,248,6.0,16.0,94,0.00,,,0.00,0.000000,,2013-11-11 04:24:00,
2013-11-10 22:34:00,32.0,30.0,-100.00,WSW,248,6.0,16.0,94,0.00,,,0.00,0.000000,,2013-11-11 04:34:00,
2013-11-10 22:43:00,32.0,30.0,-100.00,WSW,248,6.0,16.0,94,0.00,,,0.00,0.000000,,2013-11-11 04:43:00,
2013-11-10 22:53:00,32.0,30.0,-100.00,WSW,248,6.0,16.0,94,0.00,,,0.00,0.000000,,2013-11-11 04:53:00,
2013-11-10 23:01:00,32.0,31.0,-100.00,West,268,4.0,9.0,96,0.00,,,0.00,0.000000,,2013-11-11 05:01:00,
2013-11-10 23:44:00,32.0,31.0,-100.00,West,268,4.0,9.0,96,0.00,,,0.00,0.000000,,2013-11-11 05:44:00,
2013-11-10 23:54:00,32.0,31.0,-100.00,West,268,4.0,9.0,96,0.00,,,0.00,0.000000,,2013-11-11 05:54:00,